Time;durP1;ratioP1;P1;durP2;ratioP2;P2;SDS_P1;SDS_P2;PMS_P1;PMS_P2;Temp;Humidity;BMP_temperature;BMP_pressure;BME280_temperature;BME280_humidity;BME280_pressure;Samples;Min_cycle;Max_cycle;Signal;HPM_P1;HPM_P2
2023/10/12 00:02:26;;;;;;;15.65;9.68;;;13.40;99.90;;;;;;4945068;28;20062;-83
2023/10/12 00:05:00;;;;;;;16.35;9.52;;;13.40;99.90;;;;;;4952705;28;20057;-83
2023/10/12 00:07:36;;;;;;;15.40;9.35;;;13.30;99.90;;;;;;4932518;28;20157;-83
2023/10/12 00:12:47;;;;;;;14.18;9.48;;;13.30;99.90;;;;;;4935948;28;20065;-83
2023/10/12 00:15:28;;;;;;;16.10;9.88;;;13.30;99.90;;;;;;4932389;28;20054;-83
2023/10/12 00:17:59;;;;;;;17.17;10.00;;;13.20;99.90;;;;;;4965734;28;20053;-82
2023/10/12 00:23:09;;;;;;;13.80;10.02;;;13.20;99.90;;;;;;4942462;28;20054;-85
2023/10/12 00:26:17;;;;;;;17.02;9.60;;;13.20;99.90;;;;;;4932742;28;20141;-85
2023/10/12 00:28:39;;;;;;;13.02;8.50;;;13.10;99.90;;;;;;4949895;28;20058;-84
2023/10/12 00:31:09;;;;;;;17.98;10.57;;;13.10;99.90;;;;;;4935284;28;20042;-83
2023/10/12 00:33:38;;;;;;;14.82;9.07;;;13.10;99.90;;;;;;4928483;28;20054;-85
2023/10/12 00:36:19;;;;;;;16.17;10.18;;;13.10;99.90;;;;;;4965642;28;20046;-82
2023/10/12 00:38:48;;;;;;;14.48;10.18;;;13.10;99.90;;;;;;4951677;28;20054;-85
2023/10/12 00:41:17;;;;;;;16.25;10.50;;;13.10;99.90;;;;;;4949567;28;20046;-84
2023/10/12 00:44:18;;;;;;;16.05;10.73;;;13.10;99.90;;;;;;4923067;28;20047;-85
2023/10/12 00:46:52;;;;;;;19.75;10.68;;;13.00;99.90;;;;;;4946368;28;20046;-83
2023/10/12 00:49:21;;;;;;;17.73;10.15;;;13.00;99.90;;;;;;4933177;28;20061;-82
2023/10/12 00:51:51;;;;;;;19.05;10.30;;;13.00;99.90;;;;;;4919611;28;20201;-83
2023/10/12 00:54:41;;;;;;;17.25;11.27;;;13.00;99.90;;;;;;4935751;28;20085;-84
2023/10/12 00:57:09;;;;;;;18.73;10.18;;;13.00;99.90;;;;;;4938464;28;20050;-84
2023/10/12 00:59:40;;;;;;;15.52;9.82;;;13.00;99.90;;;;;;4933401;28;21098;-83
2023/10/12 01:02:08;;;;;;;17.17;10.30;;;13.00;99.90;;;;;;4920064;28;20081;-82
2023/10/12 01:04:36;;;;;;;17.13;10.73;;;13.00;99.90;;;;;;4920608;28;20927;-84
2023/10/12 01:07:06;;;;;;;15.25;10.27;;;13.00;99.90;;;;;;4921559;28;20046;-84
2023/10/12 01:09:45;;;;;;;14.98;9.70;;;13.00;99.90;;;;;;4948625;28;20046;-84
2023/10/12 01:12:13;;;;;;;14.05;9.60;;;13.00;99.90;;;;;;4932390;28;20242;-84
2023/10/12 01:14:45;;;;;;;18.00;9.73;;;13.00;99.90;;;;;;4920839;28;20054;-84
2023/10/12 01:17:24;;;;;;;19.05;10.88;;;13.00;99.90;;;;;;4921497;28;20055;-82
2023/10/12 01:19:52;;;;;;;15.45;10.48;;;12.90;99.90;;;;;;4950504;28;20046;-84
2023/10/12 01:22:27;;;;;;;17.35;10.77;;;12.90;99.90;;;;;;4953538;28;20047;-85
2023/10/12 01:27:22;;;;;;;14.93;9.10;;;12.80;99.90;;;;;;4934808;28;20050;-83
2023/10/12 01:29:52;;;;;;;18.05;10.45;;;12.90;99.90;;;;;;4950356;28;20133;-83
2023/10/12 01:32:21;;;;;;;15.55;9.98;;;12.80;99.90;;;;;;4935588;28;20697;-84
2023/10/12 01:34:52;;;;;;;17.10;11.00;;;12.80;99.90;;;;;;4921521;28;20050;-84
2023/10/12 01:37:27;;;;;;;13.63;9.40;;;12.80;99.90;;;;;;4945845;28;20054;-83
2023/10/12 01:47:56;;;;;;;12.90;8.57;;;12.70;99.90;;;;;;4931524;28;20208;-84
2023/10/12 01:50:28;;;;;;;15.35;10.07;;;12.70;99.90;;;;;;4955714;28;20049;-86
2023/10/12 01:52:58;;;;;;;16.17;9.55;;;12.70;99.90;;;;;;4932107;28;20057;-84
2023/10/12 01:55:30;;;;;;;16.83;9.10;;;12.60;99.90;;;;;;4962212;28;20056;-85
2023/10/12 01:57:58;;;;;;;16.00;9.70;;;12.70;99.90;;;;;;4924937;28;20085;-83
2023/10/12 02:00:39;;;;;;;14.60;9.20;;;12.70;99.90;;;;;;4920695;28;20849;-84
2023/10/12 02:03:26;;;;;;;15.60;8.70;;;12.70;99.90;;;;;;4958763;28;20058;-85
2023/10/12 02:05:58;;;;;;;14.43;9.35;;;12.70;99.90;;;;;;4935247;28;20064;-83
2023/10/12 02:08:59;;;;;;;15.50;9.27;;;12.70;99.90;;;;;;4966800;28;20107;-84
2023/10/12 02:13:54;;;;;;;14.35;8.75;;;12.60;99.90;;;;;;4930894;28;20054;-85
2023/10/12 02:16:31;;;;;;;15.27;9.10;;;12.60;99.90;;;;;;4936774;28;22313;-85
2023/10/12 02:19:07;;;;;;;15.40;9.90;;;12.60;99.90;;;;;;4937908;28;20069;-83
2023/10/12 02:21:40;;;;;;;17.77;9.82;;;12.60;99.90;;;;;;4945874;28;20051;-85
2023/10/12 02:26:37;;;;;;;19.50;9.75;;;12.30;99.90;;;;;;4960740;28;20064;-85
2023/10/12 02:31:46;;;;;;;14.18;9.05;;;12.50;99.90;;;;;;4939308;28;20097;-84
2023/10/12 02:34:28;;;;;;;15.60;8.43;;;12.50;99.90;;;;;;4947716;28;20058;-85
2023/10/12 02:39:38;;;;;;;15.95;9.02;;;12.50;99.90;;;;;;4955695;28;20506;-83
2023/10/12 02:47:18;;;;;;;;;;;12.40;99.90;;;;;;4955187;28;21857;-86
2023/10/12 02:49:46;;;;;;;14.07;9.15;;;12.40;99.90;;;;;;4938650;28;19968;-85
2023/10/12 02:52:15;;;;;;;12.88;8.85;;;12.30;99.90;;;;;;4920655;28;22102;-85
2023/10/12 02:54:50;;;;;;;14.63;9.13;;;12.30;99.90;;;;;;4919353;28;20058;-85
2023/10/12 02:57:24;;;;;;;16.10;9.40;;;12.30;99.90;;;;;;4921754;28;20132;-85
2023/10/12 03:00:14;;;;;;;22.02;10.00;;;12.30;99.90;;;;;;4911711;28;21533;-85
2023/10/12 03:02:44;;;;;;;14.05;9.57;;;12.30;99.90;;;;;;4934883;28;20034;-86
2023/10/12 03:05:17;;;;;;;13.77;8.90;;;12.30;99.90;;;;;;4971088;28;20058;-83
2023/10/12 03:07:45;;;;;;;13.77;9.23;;;12.30;99.90;;;;;;4945674;28;21139;-86
2023/10/12 03:10:24;;;;;;;15.55;9.57;;;12.20;99.90;;;;;;4935427;28;20312;-84
2023/10/12 03:12:55;;;;;;;13.82;8.88;;;12.20;99.90;;;;;;4945772;28;20620;-83
2023/10/12 03:15:41;;;;;;;14.85;9.20;;;12.20;99.90;;;;;;4919165;28;20078;-83
2023/10/12 03:18:12;;;;;;;16.33;9.15;;;12.20;99.90;;;;;;4933512;28;20116;-86
2023/10/12 03:20:59;;;;;;;13.85;8.98;;;12.10;99.90;;;;;;4949445;28;20069;-84
2023/10/12 03:23:28;;;;;;;17.55;9.65;;;12.20;99.90;;;;;;4951663;28;20307;-86
2023/10/12 03:25:56;;;;;;;13.82;8.48;;;12.10;99.90;;;;;;4967042;28;20282;-84
2023/10/12 03:29:02;;;;;;;14.75;9.02;;;12.10;99.90;;;;;;4929664;28;20061;-83
2023/10/12 03:31:34;;;;;;;;;;;12.10;99.90;;;;;;4947765;28;20062;-82
2023/10/12 03:34:05;;;;;;;11.98;8.25;;;12.10;99.90;;;;;;4952660;28;20378;-85
2023/10/12 03:36:36;;;;;;;15.35;8.40;;;12.10;99.90;;;;;;4959437;28;20657;-84
2023/10/12 03:44:36;;;;;;;13.95;8.80;;;12.00;99.90;;;;;;4942403;28;20077;-82
2023/10/12 03:47:14;;;;;;;12.43;7.60;;;12.00;99.90;;;;;;4938697;28;20055;-84
2023/10/12 03:52:52;;;;;;;15.60;8.70;;;11.90;99.90;;;;;;4971603;28;20062;-84
2023/10/12 03:55:26;;;;;;;12.15;7.30;;;11.90;99.90;;;;;;4957473;28;20054;-84
2023/10/12 03:58:05;;;;;;;15.88;7.93;;;12.00;99.90;;;;;;4957309;28;20089;-82
2023/10/12 04:03:10;;;;;;;15.60;7.85;;;11.90;99.90;;;;;;4929198;28;20054;-84
2023/10/12 04:05:55;;;;;;;13.25;7.97;;;11.90;99.90;;;;;;4938773;28;20054;-86
2023/10/12 04:18:40;;;;;;;13.80;7.60;;;11.90;99.90;;;;;;4950178;28;20057;-83
2023/10/12 04:21:17;;;;;;;11.98;7.18;;;11.90;99.90;;;;;;4931029;28;20057;-85
2023/10/12 04:28:56;;;;;;;11.02;7.07;;;11.90;99.90;;;;;;4953574;28;20051;-86
2023/10/12 04:34:15;;;;;;;12.85;6.32;;;11.90;99.90;;;;;;4954068;28;20054;-87
2023/10/12 04:47:14;;;;;;;12.88;6.70;;;11.80;99.90;;;;;;4925372;28;20279;-87
2023/10/12 04:54:59;;;;;;;8.00;4.95;;;11.90;99.90;;;;;;4971124;28;20403;-84
2023/10/12 04:57:30;;;;;;;10.57;5.45;;;11.80;99.90;;;;;;4946072;28;20116;-85
2023/10/12 05:07:54;;;;;;;7.97;5.43;;;11.90;99.90;;;;;;4955158;28;20046;-85
2023/10/12 05:10:31;;;;;;;10.23;5.40;;;11.90;99.90;;;;;;4974738;28;20099;-85
2023/10/12 05:13:05;;;;;;;14.55;5.38;;;11.80;99.90;;;;;;4936766;28;20188;-85
2023/10/12 05:15:46;;;;;;;12.88;5.28;;;11.80;99.90;;;;;;4938100;28;20136;-84
2023/10/12 05:18:17;;;;;;;8.63;5.82;;;11.90;99.90;;;;;;4934522;28;22248;-87
2023/10/12 05:20:45;;;;;;;13.32;5.75;;;11.90;99.90;;;;;;4919531;28;20178;-84
2023/10/12 05:23:13;;;;;;;12.07;5.60;;;11.80;99.90;;;;;;4969388;28;20046;-83
2023/10/12 05:28:27;;;;;;;14.02;6.07;;;11.80;99.90;;;;;;4936279;28;20054;-85
2023/10/12 05:30:59;;;;;;;11.07;6.50;;;11.90;99.90;;;;;;4920912;28;20050;-86
2023/10/12 05:36:10;;;;;;;14.90;5.85;;;11.80;99.90;;;;;;4930264;28;20978;-86
2023/10/12 05:38:49;;;;;;;9.90;5.50;;;11.90;99.90;;;;;;4931702;28;20393;-86
2023/10/12 05:44:08;;;;;;;8.50;5.18;;;12.00;99.90;;;;;;4941771;28;20050;-85
2023/10/12 05:46:45;;;;;;;;;;;12.00;99.90;;;;;;4946384;28;20131;-86
2023/10/12 05:49:16;;;;;;;11.65;4.90;;;12.00;99.90;;;;;;4917019;28;19930;-86
2023/10/12 05:51:44;;;;;;;11.73;5.25;;;12.10;99.90;;;;;;4955165;28;20054;-85
2023/10/12 05:54:19;;;;;;;12.98;5.35;;;12.10;99.90;;;;;;4955494;28;20046;-86
2023/10/12 05:56:51;;;;;;;9.90;5.15;;;12.10;99.90;;;;;;4922906;28;20050;-84
2023/10/12 05:59:20;;;;;;;11.30;5.05;;;12.20;99.90;;;;;;4935839;28;20062;-85
2023/10/12 06:01:51;;;;;;;10.90;5.22;;;12.20;99.90;;;;;;4955853;28;20058;-86
2023/10/12 06:04:19;;;;;;;11.13;5.95;;;12.20;99.90;;;;;;4924842;28;20096;-85
2023/10/12 06:06:51;;;;;;;10.75;5.13;;;12.10;99.90;;;;;;4931366;28;20046;-85
2023/10/12 06:09:24;;;;;;;9.13;5.40;;;12.20;99.90;;;;;;4965460;28;20046;-86
2023/10/12 06:11:53;;;;;;;7.82;4.75;;;12.30;99.90;;;;;;4950208;28;21031;-85
2023/10/12 06:14:22;;;;;;;9.00;4.80;;;12.40;99.90;;;;;;4952392;28;20077;-87
2023/10/12 06:16:54;;;;;;;10.30;4.85;;;12.40;99.90;;;;;;4957374;28;20070;-85
2023/10/12 06:19:44;;;;;;;8.65;5.00;;;12.50;99.90;;;;;;4925489;28;20058;-86
2023/10/12 06:22:19;;;;;;;8.48;5.00;;;12.50;99.90;;;;;;4947274;28;20085;-86
2023/10/12 06:24:52;;;;;;;11.57;4.57;;;12.60;99.90;;;;;;4946643;28;20055;-86
2023/10/12 06:29:55;;;;;;;8.05;4.55;;;12.70;99.90;;;;;;4955946;28;20065;-85
2023/10/12 06:32:32;;;;;;;9.93;5.03;;;12.70;99.90;;;;;;4955651;28;20087;-86
2023/10/12 06:48:23;;;;;;;;;;;12.90;99.90;;;;;;4940561;28;20146;-88
2023/10/12 06:51:05;;;;;;;12.25;4.18;;;13.10;99.90;;;;;;4958117;28;19937;-86
2023/10/12 06:53:36;;;;;;;8.70;4.38;;;13.20;99.90;;;;;;4962294;28;20058;-85
2023/10/12 06:59:07;;;;;;;7.45;4.25;;;13.40;99.90;;;;;;4958163;28;20304;-85
2023/10/12 07:04:15;;;;;;;6.30;3.95;;;13.50;99.90;;;;;;4955017;28;20058;-87
2023/10/12 07:07:00;;;;;;;8.80;4.22;;;13.60;99.90;;;;;;4963037;28;20058;-83
2023/10/12 07:12:13;;;;;;;9.38;3.95;;;13.80;99.90;;;;;;4951581;28;20419;-83
2023/10/12 07:14:47;;;;;;;8.02;3.38;;;13.90;99.90;;;;;;4978619;28;20054;-86
2023/10/12 07:17:16;;;;;;;14.52;4.45;;;14.00;99.90;;;;;;4937114;28;20051;-85
2023/10/12 07:19:47;;;;;;;9.38;4.38;;;14.10;99.90;;;;;;4939055;28;20157;-83
2023/10/12 07:22:18;;;;;;;8.00;4.82;;;14.10;99.90;;;;;;4960917;28;20230;-84
2023/10/12 07:24:53;;;;;;;9.17;5.10;;;14.20;99.90;;;;;;4934410;28;20054;-86
2023/10/12 07:27:22;;;;;;;9.95;4.82;;;14.40;99.90;;;;;;4950140;28;20387;-84
2023/10/12 07:30:08;;;;;;;8.70;4.47;;;14.50;99.90;;;;;;4941231;28;20054;-83
2023/10/12 07:32:40;;;;;;;10.60;4.82;;;14.50;99.90;;;;;;4954231;28;20133;-82
2023/10/12 07:35:53;;;;;;;7.50;4.38;;;14.60;99.90;;;;;;4958654;28;20142;-83
2023/10/12 07:37:59;;;;;;;7.28;4.32;;;14.70;99.90;;;;;;4943484;28;20511;-83
2023/10/12 07:40:34;;;;;;;7.80;4.55;;;14.80;99.90;;;;;;4966275;28;20050;-83
2023/10/12 07:43:05;;;;;;;12.27;5.28;;;14.90;99.90;;;;;;4963553;28;20052;-83
2023/10/12 07:45:47;;;;;;;11.68;4.65;;;15.00;99.90;;;;;;4938690;28;20058;-83
2023/10/12 07:48:31;;;;;;;8.27;5.07;;;15.00;99.90;;;;;;4958937;28;20504;-84
2023/10/12 07:51:15;;;;;;;8.40;4.85;;;15.10;99.90;;;;;;4980659;28;20046;-82
2023/10/12 07:54:00;;;;;;;9.13;5.28;;;15.20;99.90;;;;;;4955623;28;20050;-83
2023/10/12 07:56:34;;;;;;;9.52;4.68;;;15.30;99.90;;;;;;4976138;28;20192;-82
2023/10/12 07:59:01;;;;;;;10.77;5.75;;;15.40;99.90;;;;;;4963967;28;20054;-83
2023/10/12 08:04:00;;;;;;;11.05;5.00;;;15.60;99.90;;;;;;4967600;28;20046;-83
2023/10/12 08:06:42;;;;;;;10.48;6.25;;;15.70;99.90;;;;;;4979941;28;20062;-84
2023/10/12 08:09:22;;;;;;;10.73;5.60;;;15.70;99.90;;;;;;4961006;28;20118;-82
2023/10/12 08:11:49;;;;;;;9.45;5.72;;;15.80;99.90;;;;;;4944740;28;20054;-83
2023/10/12 08:22:36;;;;;;;13.27;5.68;;;16.00;99.90;;;;;;4973634;28;20128;-83
2023/10/12 08:25:04;;;;;;;11.25;5.70;;;16.10;99.90;;;;;;4966071;28;20126;-82
2023/10/12 08:27:52;;;;;;;12.68;5.78;;;16.10;99.90;;;;;;4957905;28;20054;-82
2023/10/12 08:30:48;;;;;;;12.10;5.97;;;16.20;99.90;;;;;;4940017;28;20072;-83
2023/10/12 08:33:14;;;;;;;10.70;6.05;;;16.20;99.90;;;;;;4947762;28;20062;-82
2023/10/12 08:38:33;;;;;;;14.27;5.70;;;16.30;99.90;;;;;;4973368;28;20827;-83
2023/10/12 08:43:48;;;;;;;11.07;6.13;;;16.40;99.90;;;;;;4949238;28;20050;-82
2023/10/12 08:46:41;;;;;;;11.38;6.65;;;16.60;99.90;;;;;;4969865;28;20046;-83
2023/10/12 08:52:08;;;;;;;14.10;6.22;;;16.70;99.90;;;;;;4953423;28;20838;-82
2023/10/12 08:54:40;;;;;;;11.77;6.70;;;16.80;99.90;;;;;;4938204;28;20494;-81
2023/10/12 08:57:32;;;;;;;13.00;5.88;;;16.80;99.90;;;;;;4955768;28;20065;-81
2023/10/12 09:02:52;;;;;;;10.20;6.05;;;17.20;99.90;;;;;;4965886;28;20050;-81
2023/10/12 09:05:39;;;;;;;13.30;6.57;;;17.10;99.90;;;;;;4956918;28;20058;-81
2023/10/12 09:13:33;;;;;;;12.35;6.22;;;17.20;99.90;;;;;;4941646;28;20256;-82
2023/10/12 09:16:11;;;;;;;9.35;5.28;;;17.40;99.90;;;;;;4971819;28;20054;-82
2023/10/12 09:18:46;;;;;;;12.98;6.78;;;17.70;99.90;;;;;;4941943;28;20096;-80
2023/10/12 09:21:31;;;;;;;11.13;5.97;;;17.90;99.90;;;;;;4949533;28;20054;-79
2023/10/12 09:24:06;;;;;;;9.60;4.97;;;17.90;99.10;;;;;;4978511;28;20055;-81
2023/10/12 09:26:35;;;;;;;10.40;5.72;;;18.00;99.50;;;;;;4971809;28;20057;-86
2023/10/12 09:36:53;;;;;;;10.27;5.40;;;18.40;98.60;;;;;;4962056;28;20957;-81
2023/10/12 09:39:27;;;;;;;12.80;5.88;;;18.50;97.60;;;;;;4981638;28;20097;-83
2023/10/12 09:42:14;;;;;;;9.68;5.80;;;18.50;98.30;;;;;;4986893;28;20057;-81
2023/10/12 09:44:42;;;;;;;8.48;5.22;;;18.50;97.30;;;;;;4944340;28;20136;-81
2023/10/12 09:47:23;;;;;;;8.90;5.30;;;18.40;97.20;;;;;;4963607;28;20108;-82
2023/10/12 09:49:58;;;;;;;8.98;5.35;;;18.50;98.60;;;;;;4937686;28;20050;-83
2023/10/12 09:52:46;;;;;;;12.27;5.70;;;18.70;97.90;;;;;;4965577;28;20054;-81
2023/10/12 09:55:25;;;;;;;12.95;6.10;;;18.80;98.20;;;;;;4975671;28;20059;-81
2023/10/12 09:57:58;;;;;;;12.35;6.63;;;18.90;96.70;;;;;;4954025;28;20784;-80
2023/10/12 10:03:12;;;;;;;15.55;6.28;;;18.90;98.70;;;;;;4967293;28;20081;-80
2023/10/12 10:05:52;;;;;;;14.63;6.60;;;19.10;98.40;;;;;;4974424;28;20093;-82
2023/10/12 10:08:26;;;;;;;11.98;5.68;;;19.00;97.40;;;;;;4977490;28;22554;-82
2023/10/12 10:10:57;;;;;;;14.05;6.50;;;19.20;97.50;;;;;;4946918;28;20049;-83
2023/10/12 10:13:46;;;;;;;11.30;6.00;;;19.20;96.90;;;;;;4975438;28;20046;-80
2023/10/12 10:16:17;;;;;;;9.85;5.45;;;19.40;97.70;;;;;;4960039;28;20053;-81
2023/10/12 10:18:49;;;;;;;13.55;6.35;;;19.40;97.90;;;;;;4956275;28;20134;-81
2023/10/12 10:21:22;;;;;;;9.52;5.60;;;19.40;97.70;;;;;;4941223;28;20719;-81
2023/10/12 10:23:57;;;;;;;11.00;5.50;;;19.40;98.30;;;;;;4958848;28;20511;-82
2023/10/12 10:26:32;;;;;;;14.57;5.97;;;19.50;97.50;;;;;;4939216;28;20149;-80
2023/10/12 10:29:17;;;;;;;8.15;4.90;;;19.70;98.10;;;;;;4977880;28;20046;-80
2023/10/12 10:31:50;;;;;;;10.93;6.03;;;19.80;98.00;;;;;;4966887;28;20193;-82
2023/10/12 10:34:23;;;;;;;9.63;5.22;;;19.70;97.30;;;;;;4963217;28;22447;-79
2023/10/12 10:36:52;;;;;;;11.65;5.00;;;19.80;97.00;;;;;;4962259;28;22448;-80
2023/10/12 10:44:26;;;;;;;11.57;5.32;;;20.00;96.90;;;;;;4961296;28;20046;-79
2023/10/12 10:47:00;;;;;;;12.55;5.65;;;20.00;97.10;;;;;;4955158;28;20063;-80
2023/10/12 10:49:31;;;;;;;10.77;6.07;;;20.00;97.20;;;;;;4952561;28;20156;-80
2023/10/12 10:54:37;;;;;;;8.88;5.63;;;20.00;96.00;;;;;;4970372;28;20598;-80
2023/10/12 10:57:24;;;;;;;12.65;5.53;;;20.10;96.50;;;;;;4952156;28;20062;-80
2023/10/12 10:59:52;;;;;;;10.52;5.82;;;20.30;95.70;;;;;;4935000;28;20735;-80
2023/10/12 11:02:21;;;;;;;10.45;5.50;;;20.10;95.30;;;;;;4952475;28;20046;-82
2023/10/12 11:04:54;;;;;;;14.38;5.70;;;20.20;96.00;;;;;;4951495;28;20963;-80
2023/10/12 11:07:24;;;;;;;11.02;5.55;;;20.30;96.60;;;;;;4972202;28;20055;-81
2023/10/12 11:10:05;;;;;;;11.10;5.50;;;20.20;96.70;;;;;;4940273;28;20066;-81
2023/10/12 11:12:36;;;;;;;12.70;5.90;;;20.30;97.00;;;;;;4951426;28;20087;-79
2023/10/12 11:15:14;;;;;;;11.48;4.90;;;20.30;96.30;;;;;;4961248;28;20053;-82
2023/10/12 11:17:55;;;;;;;14.70;6.05;;;20.20;96.10;;;;;;4938795;28;20062;-79
2023/10/12 11:20:27;;;;;;;12.50;5.95;;;20.30;96.20;;;;;;4979025;28;20050;-79
2023/10/12 11:22:55;;;;;;;12.82;6.57;;;20.40;95.50;;;;;;4966037;28;20723;-80
2023/10/12 11:25:22;;;;;;;9.38;5.75;;;20.30;95.90;;;;;;4941219;28;20061;-81
2023/10/12 11:27:53;;;;;;;12.27;5.25;;;20.40;96.30;;;;;;4975496;28;20058;-80
2023/10/12 11:30:35;;;;;;;13.77;6.28;;;20.50;94.90;;;;;;4970241;28;20094;-80
2023/10/12 11:33:09;;;;;;;8.50;5.47;;;20.50;94.90;;;;;;4967269;28;20159;-81
2023/10/12 11:35:41;;;;;;;9.90;5.53;;;20.40;95.00;;;;;;4952607;28;20046;-79
2023/10/12 11:38:19;;;;;;;11.35;5.68;;;20.40;95.70;;;;;;4933544;28;20066;-80
2023/10/12 11:40:58;;;;;;;13.07;5.63;;;20.30;94.90;;;;;;4958512;28;20120;-80
2023/10/12 11:43:52;;;;;;;13.55;5.82;;;20.30;94.50;;;;;;4933513;28;20046;-81
2023/10/12 11:46:23;;;;;;;18.70;6.60;;;20.40;94.90;;;;;;4926560;28;20870;-80
2023/10/12 11:49:07;;;;;;;14.93;5.93;;;20.30;94.50;;;;;;4934676;28;20192;-81
2023/10/12 11:51:42;;;;;;;15.75;5.97;;;20.40;94.40;;;;;;4961248;28;20054;-80
2023/10/12 11:54:19;;;;;;;11.27;5.43;;;20.50;95.50;;;;;;4966923;28;20867;-79
2023/10/12 11:56:49;;;;;;;12.48;6.00;;;20.70;94.80;;;;;;4963811;28;20059;-79
2023/10/12 11:59:30;;;;;;;12.85;5.88;;;20.70;94.50;;;;;;4955839;28;20055;-80
2023/10/12 12:02:08;;;;;;;10.65;5.00;;;20.60;94.20;;;;;;4975730;28;20046;-80
2023/10/12 12:04:41;;;;;;;12.23;5.65;;;20.70;94.70;;;;;;4940678;28;20042;-81
2023/10/12 12:07:29;;;;;;;9.97;5.07;;;20.70;94.40;;;;;;4950714;28;20598;-80
2023/10/12 12:10:01;;;;;;;11.55;5.22;;;20.80;94.70;;;;;;4937181;28;20050;-80
2023/10/12 12:12:28;;;;;;;19.77;6.70;;;20.90;94.80;;;;;;4964554;28;20058;-81
2023/10/12 12:14:56;;;;;;;10.77;6.32;;;20.90;94.50;;;;;;4960400;28;20042;-80
2023/10/12 12:17:25;;;;;;;11.05;5.75;;;20.90;94.20;;;;;;4966982;28;20085;-80
2023/10/12 12:19:53;;;;;;;13.15;6.53;;;20.80;94.90;;;;;;4959716;28;20061;-81
2023/10/12 12:22:23;;;;;;;10.98;5.82;;;20.90;95.10;;;;;;4955402;28;20185;-81
2023/10/12 12:24:50;;;;;;;15.13;7.60;;;20.90;95.20;;;;;;4967800;28;20050;-79
2023/10/12 12:30:08;;;;;;;14.55;6.53;;;20.80;94.50;;;;;;4955762;28;20046;-80
2023/10/12 12:32:40;;;;;;;10.23;6.25;;;20.80;94.90;;;;;;4948661;28;20145;-80
2023/10/12 12:35:07;;;;;;;15.48;6.82;;;20.90;95.40;;;;;;4936179;28;20050;-81
2023/10/12 12:37:38;;;;;;;12.73;6.22;;;20.90;95.70;;;;;;4950564;28;20058;-80
2023/10/12 12:40:28;;;;;;;12.18;6.78;;;20.90;96.00;;;;;;4954249;28;22560;-80
2023/10/12 12:42:56;;;;;;;14.30;7.30;;;20.90;96.50;;;;;;4966803;28;22464;-80
2023/10/12 12:45:24;;;;;;;11.35;6.35;;;20.90;96.40;;;;;;4938911;28;20065;-80
2023/10/12 12:47:51;;;;;;;11.40;6.25;;;21.00;95.80;;;;;;4946489;28;20137;-80
2023/10/12 12:50:18;;;;;;;12.98;6.10;;;21.00;95.80;;;;;;4970440;28;20053;-80
2023/10/12 12:52:46;;;;;;;11.98;5.97;;;21.00;96.00;;;;;;4944765;28;20054;-80
2023/10/12 12:55:18;;;;;;;17.63;7.15;;;21.00;96.00;;;;;;4976377;28;20050;-81
2023/10/12 12:57:46;;;;;;;13.50;6.20;;;21.10;95.30;;;;;;4955833;28;20058;-80
2023/10/12 13:00:19;;;;;;;14.55;6.95;;;21.30;95.00;;;;;;4979879;28;20054;-81
2023/10/12 13:02:47;;;;;;;9.68;6.13;;;21.20;95.10;;;;;;4961264;28;20077;-81
2023/10/12 13:05:15;;;;;;;13.75;5.32;;;21.20;94.70;;;;;;4958465;28;20050;-84
2023/10/12 13:07:46;;;;;;;10.10;5.50;;;21.30;95.00;;;;;;4967816;28;20077;-81
2023/10/12 13:10:13;;;;;;;14.45;6.00;;;21.30;94.40;;;;;;4977762;28;20954;-80
2023/10/12 13:12:41;;;;;;;11.23;5.32;;;21.20;95.60;;;;;;4947550;28;20184;-80
2023/10/12 13:15:14;;;;;;;8.48;5.63;;;21.10;95.90;;;;;;4971808;28;20058;-81
2023/10/12 13:17:41;;;;;;;12.93;7.15;;;21.10;96.00;;;;;;4969411;28;20058;-81
2023/10/12 13:20:21;;;;;;;10.95;5.90;;;21.10;96.20;;;;;;4960000;28;20695;-80
2023/10/12 13:22:49;;;;;;;14.25;5.97;;;21.00;96.00;;;;;;4954368;28;20570;-80
2023/10/12 13:25:20;;;;;;;10.68;5.65;;;21.00;96.20;;;;;;4962562;28;20042;-81
2023/10/12 13:27:49;;;;;;;12.40;5.95;;;21.20;95.50;;;;;;4939134;28;20054;-82
2023/10/12 13:30:16;;;;;;;11.73;5.82;;;21.10;95.20;;;;;;4970578;28;20038;-80
2023/10/12 13:32:47;;;;;;;15.25;6.13;;;21.10;95.20;;;;;;4970288;28;20054;-81
2023/10/12 13:35:18;;;;;;;12.32;5.80;;;21.10;95.60;;;;;;4946197;28;20705;-81
2023/10/12 13:37:45;;;;;;;11.15;5.28;;;21.10;96.30;;;;;;4984379;28;20054;-83
2023/10/12 13:40:16;;;;;;;10.63;5.43;;;21.20;95.40;;;;;;4951246;28;20399;-83
2023/10/12 13:42:44;;;;;;;11.38;5.03;;;21.20;94.90;;;;;;4991473;28;21168;-80
2023/10/12 13:45:18;;;;;;;11.85;5.47;;;21.30;94.60;;;;;;4971312;28;20517;-80
2023/10/12 13:47:46;;;;;;;8.50;4.93;;;21.20;95.30;;;;;;4978134;28;20061;-81
2023/10/12 13:50:14;;;;;;;9.77;5.03;;;21.20;95.10;;;;;;4965894;28;20164;-81
2023/10/12 13:52:42;;;;;;;11.10;5.03;;;21.20;95.10;;;;;;4958233;28;20097;-81
2023/10/12 13:55:11;;;;;;;12.68;5.13;;;21.20;95.20;;;;;;4958717;28;20129;-81
2023/10/12 13:58:07;;;;;;;11.77;5.28;;;21.30;94.40;;;;;;4962400;28;20062;-81
2023/10/12 14:00:37;;;;;;;10.38;5.20;;;21.20;95.40;;;;;;4958793;28;20140;-80
2023/10/12 14:03:10;;;;;;;13.80;5.72;;;21.10;96.10;;;;;;4955389;28;20065;-81
2023/10/12 14:05:40;;;;;;;9.18;5.20;;;21.10;95.80;;;;;;4941990;28;20046;-79
2023/10/12 14:08:10;;;;;;;10.38;5.53;;;21.10;95.60;;;;;;4961451;28;20058;-82
2023/10/12 14:10:40;;;;;;;12.52;5.03;;;21.10;95.90;;;;;;4963165;28;20108;-82
2023/10/12 14:13:08;;;;;;;8.35;4.40;;;21.10;95.40;;;;;;4964261;28;20117;-81
2023/10/12 14:15:36;;;;;;;10.85;5.30;;;21.20;96.20;;;;;;4937709;28;20526;-82
2023/10/12 14:18:04;;;;;;;14.10;4.90;;;21.10;95.60;;;;;;4937095;28;22050;-81
2023/10/12 14:20:37;;;;;;;10.25;4.20;;;21.20;96.50;;;;;;4935603;28;20058;-81
2023/10/12 14:23:07;;;;;;;7.60;4.43;;;21.10;96.80;;;;;;4951079;28;20065;-81
2023/10/12 14:25:43;;;;;;;8.40;4.68;;;21.10;97.00;;;;;;4962812;28;20051;-80
2023/10/12 14:28:11;;;;;;;11.80;4.70;;;21.00;97.10;;;;;;4937236;28;20051;-82
2023/10/12 14:30:38;;;;;;;15.80;6.40;;;21.10;96.90;;;;;;4964212;28;20064;-81
2023/10/12 14:33:06;;;;;;;13.52;5.60;;;21.00;97.10;;;;;;4956052;28;20054;-81
2023/10/12 14:35:39;;;;;;;12.68;6.47;;;21.00;97.30;;;;;;4969745;28;20125;-81
2023/10/12 14:38:07;;;;;;;11.75;5.13;;;21.00;97.60;;;;;;4944331;28;21132;-82
2023/10/12 14:40:40;;;;;;;10.63;4.85;;;20.90;97.60;;;;;;4946522;28;20644;-81
2023/10/12 14:43:12;;;;;;;10.05;4.65;;;20.90;98.20;;;;;;4945965;28;20059;-81
2023/10/12 14:46:03;;;;;;;13.50;6.00;;;20.90;98.00;;;;;;4966147;28;20047;-82
2023/10/12 14:48:30;;;;;;;10.63;5.20;;;20.80;98.30;;;;;;4967134;28;20058;-81
2023/10/12 14:51:48;;;;;;;12.40;4.88;;;20.90;98.30;;;;;;4965997;28;20065;-81
2023/10/12 14:53:56;;;;;;;10.50;4.65;;;20.80;98.50;;;;;;4966767;28;20146;-81
2023/10/12 14:56:27;;;;;;;9.75;5.38;;;20.70;99.50;;;;;;4953355;28;20058;-82
2023/10/12 14:58:56;;;;;;;11.95;5.05;;;20.70;99.40;;;;;;4951716;28;20050;-82
2023/10/12 15:01:32;;;;;;;12.55;4.93;;;20.70;99.60;;;;;;4965088;28;20078;-82
2023/10/12 15:03:59;;;;;;;10.75;5.22;;;20.60;99.30;;;;;;4943689;28;20050;-81
2023/10/12 15:06:31;;;;;;;9.88;4.80;;;20.50;99.70;;;;;;4942916;28;20692;-81
2023/10/12 15:08:59;;;;;;;10.55;4.07;;;20.50;99.30;;;;;;4947092;28;20113;-81
2023/10/12 15:11:26;;;;;;;14.77;5.03;;;20.50;99.80;;;;;;4960154;28;20225;-81
2023/10/12 15:13:54;;;;;;;10.27;4.53;;;20.40;99.40;;;;;;4949361;28;20136;-81
2023/10/12 15:16:24;;;;;;;11.65;4.93;;;20.50;99.40;;;;;;4951248;28;20050;-82
2023/10/12 15:18:52;;;;;;;10.50;4.97;;;20.40;99.70;;;;;;4960122;28;20066;-81
2023/10/12 15:21:21;;;;;;;17.02;5.47;;;20.40;99.90;;;;;;4957128;28;20046;-82
2023/10/12 15:23:58;;;;;;;11.52;5.25;;;20.30;99.90;;;;;;4931752;28;20121;-82
2023/10/12 15:26:25;;;;;;;11.40;4.55;;;20.20;99.90;;;;;;4945425;28;20087;-82
2023/10/12 15:28:53;;;;;;;10.88;4.78;;;20.20;99.90;;;;;;4959814;28;20499;-81
2023/10/12 15:31:26;;;;;;;8.52;4.55;;;20.20;99.90;;;;;;4961851;28;20050;-81
2023/10/12 15:33:55;;;;;;;12.07;5.28;;;20.10;99.90;;;;;;4962308;28;20065;-81
2023/10/12 15:36:23;;;;;;;12.65;4.95;;;20.00;99.90;;;;;;4933588;28;20046;-81
2023/10/12 15:38:52;;;;;;;11.18;5.50;;;20.00;99.90;;;;;;4932272;28;20065;-81
2023/10/12 15:41:20;;;;;;;13.88;5.90;;;19.80;99.90;;;;;;4958622;28;20047;-81
2023/10/12 15:43:47;;;;;;;12.23;5.43;;;19.80;99.90;;;;;;4929930;28;20181;-81
2023/10/12 15:46:14;;;;;;;11.52;5.00;;;19.80;99.90;;;;;;4939378;28;20050;-81
2023/10/12 15:48:42;;;;;;;6.82;4.63;;;19.60;99.90;;;;;;4965223;28;20038;-81
2023/10/12 15:51:19;;;;;;;11.40;4.88;;;19.50;99.90;;;;;;4963520;28;22811;-81
2023/10/12 15:53:49;;;;;;;10.68;5.05;;;19.40;99.90;;;;;;4956769;28;20058;-81
2023/10/12 15:56:17;;;;;;;16.20;6.43;;;19.30;99.90;;;;;;4932603;28;20147;-81